Time;durP1;ratioP1;P1;durP2;ratioP2;P2;SDS_P1;SDS_P2;PMS_P1;PMS_P2;Temp;Humidity;BMP_temperature;BMP_pressure;BME280_temperature;BME280_humidity;BME280_pressure;Samples;Min_cycle;Max_cycle;Signal;HPM_P1;HPM_P2
2020/12/08 00:00:12;;;;;;;46.27;18.80;;;;;;;2.04;78.12;100114.05;4999187;57;1138312;-84
2020/12/08 00:05:23;;;;;;;32.33;13.47;;;;;;;2.02;77.89;100114.13;4970817;57;1138923;-84
2020/12/08 00:10:29;;;;;;;24.53;11.40;;;;;;;2.02;77.81;100114.58;4969202;57;1138359;-84
2020/12/08 00:15:34;;;;;;;38.10;17.57;;;;;;;1.93;77.85;100106.76;5058167;58;21187;-84
2020/12/08 00:20:40;;;;;;;25.93;13.27;;;;;;;1.87;78.09;100107.50;5101338;56;1134238;-83
2020/12/08 00:25:45;;;;;;;37.13;18.03;;;;;;;1.80;78.33;100116.09;5113961;56;1138315;-84
2020/12/08 00:30:52;;;;;;;30.50;14.50;;;;;;;1.76;78.41;100108.03;5121343;56;1138238;-84
2020/12/08 00:36:03;;;;;;;34.57;16.37;;;;;;;1.76;78.24;100106.27;5126891;56;1138256;-84
2020/12/08 00:41:04;;;;;;;22.00;11.97;;;;;;;1.76;78.24;100106.27;5123581;56;1138385;-85
2020/12/08 00:46:16;;;;;;;36.33;15.73;;;;;;;1.77;78.19;100103.20;5091516;56;1138540;-85
2020/12/08 00:51:21;;;;;;;23.97;12.10;;;;;;;1.74;78.21;100092.91;5152055;56;1138083;-85
2020/12/08 00:56:31;;;;;;;42.57;17.37;;;;;;;1.69;78.44;100087.06;5099977;56;1138734;-85
2020/12/08 01:01:37;;;;;;;38.43;17.90;;;;;;;1.69;78.63;100091.82;5109139;56;1138860;-85
2020/12/08 01:06:44;;;;;;;30.67;16.67;;;;;;;1.69;78.53;100093.12;5145270;56;1138187;-85
2020/12/08 01:11:50;;;;;;;28.80;12.55;;;;;;;1.67;78.52;100101.96;5096334;56;1138674;-85
2020/12/08 01:17:01;;;;;;;39.20;17.23;;;;;;;1.64;78.55;100117.28;5067570;56;1138200;-85
2020/12/08 01:22:07;;;;;;;32.07;14.73;;;;;;;1.65;78.51;100110.31;5119619;56;1138382;-85
2020/12/08 01:27:13;;;;;;;31.00;15.67;;;;;;;1.63;78.64;100105.63;5099468;57;1138256;-85
2020/12/08 01:32:19;;;;;;;31.33;12.03;;;;;;;1.61;78.34;100099.64;5081604;56;1138395;-85
2020/12/08 01:37:24;;;;;;;20.67;10.20;;;;;;;1.55;78.60;100103.36;5140099;57;1136270;-86
2020/12/08 01:42:31;;;;;;;31.47;15.30;;;;;;;1.52;78.71;100093.56;5144307;56;1138368;-85
2020/12/08 01:47:38;;;;;;;26.73;12.43;;;;;;;1.51;78.67;100101.00;5091855;56;1138183;-86
2020/12/08 01:52:47;;;;;;;31.22;15.50;;;;;;;1.46;78.74;100096.00;5078481;57;1144685;-85
2020/12/08 01:57:53;;;;;;;37.13;16.43;;;;;;;1.49;78.57;100100.22;5114297;57;1138545;-85
2020/12/08 02:03:02;;;;;;;34.40;17.05;;;;;;;1.48;78.73;100106.34;5085837;56;1138276;-85
2020/12/08 02:08:12;;;;;;;34.57;16.03;;;;;;;1.46;78.87;100106.88;5101891;57;1138437;-85
2020/12/08 02:13:19;;;;;;;31.40;15.17;;;;;;;1.45;78.90;100122.97;5148792;57;1138384;-85
2020/12/08 02:18:27;;;;;;;30.13;14.47;;;;;;;1.43;78.72;100122.19;5069192;56;1138300;-85
2020/12/08 02:23:33;;;;;;;36.20;16.30;;;;;;;1.40;78.77;100128.37;5081544;57;1138496;-85
2020/12/08 02:28:38;;;;;;;38.67;16.90;;;;;;;1.35;79.00;100120.41;5032166;57;1138484;-85
2020/12/08 02:33:45;;;;;;;30.33;13.93;;;;;;;1.39;78.69;100124.08;5063553;57;1138334;-85
2020/12/08 02:38:51;;;;;;;31.87;17.17;;;;;;;1.37;78.84;100135.52;5044300;57;1138345;-85
2020/12/08 02:43:57;;;;;;;26.50;13.17;;;;;;;1.34;78.87;100127.84;5029714;57;1138372;-85
2020/12/08 02:49:02;;;;;;;33.02;16.07;;;;;;;1.30;78.94;100127.58;5035827;57;1138350;-85
2020/12/08 02:54:09;;;;;;;32.93;15.73;;;;;;;1.23;79.18;100124.40;5045050;57;1138329;-85
2020/12/08 02:59:15;;;;;;;35.43;18.03;;;;;;;1.26;79.15;100124.27;5063400;57;1138411;-85
2020/12/08 03:04:21;;;;;;;38.33;17.93;;;;;;;1.19;79.21;100121.56;5085351;57;1138618;-85
2020/12/08 03:09:27;;;;;;;32.73;16.23;;;;;;;1.15;79.35;100118.70;5072391;56;1138564;-85
2020/12/08 03:14:33;;;;;;;34.40;16.67;;;;;;;1.15;79.34;100116.10;5148845;56;1138188;-85
2020/12/08 03:19:39;;;;;;;43.67;19.13;;;;;;;1.11;79.50;100119.75;5143697;56;1138751;-85
2020/12/08 03:24:48;;;;;;;32.07;15.90;;;;;;;1.15;79.18;100121.77;5120556;56;1138648;-85
2020/12/08 03:29:53;;;;;;;35.98;19.07;;;;;;;1.12;79.11;100120.14;5075115;56;1138817;-85
2020/12/08 03:35:01;;;;;;;44.43;19.40;;;;;;;1.14;78.92;100118.77;5139571;56;1138677;-86
2020/12/08 03:40:07;;;;;;;46.43;17.07;;;;;;;1.11;79.02;100124.11;5173044;56;1138351;-85
2020/12/08 03:45:12;;;;;;;38.77;19.30;;;;;;;1.05;79.15;100116.14;5170323;56;1138596;-85
2020/12/08 03:50:23;;;;;;;28.63;14.20;;;;;;;1.01;79.07;100120.63;5172802;56;1138357;-85
2020/12/08 03:55:29;;;;;;;36.60;16.57;;;;;;;0.96;79.36;100126.48;5192926;56;1138522;-85
2020/12/08 04:00:36;;;;;;;34.00;16.43;;;;;;;0.99;79.18;100120.31;5172646;56;1138494;-85
2020/12/08 04:05:42;;;;;;;36.10;17.97;;;;;;;0.93;79.26;100111.00;5173256;56;1138361;-85
2020/12/08 04:10:49;;;;;;;39.10;20.57;;;;;;;0.92;79.26;100118.42;5175251;56;1138689;-85
2020/12/08 04:15:54;;;;;;;44.73;17.77;;;;;;;0.92;79.25;100124.08;5161114;56;1138320;-85
2020/12/08 04:21:00;;;;;;;36.68;18.27;;;;;;;0.85;79.51;100117.47;5230058;56;1138605;-85
2020/12/08 04:26:11;;;;;;;33.40;16.13;;;;;;;0.85;79.69;100130.48;5169936;56;1138417;-85
2020/12/08 04:31:18;;;;;;;41.50;19.70;;;;;;;0.83;79.72;100119.30;5202863;56;1138224;-85
2020/12/08 04:36:26;;;;;;;23.43;12.37;;;;;;;0.82;79.77;100131.92;5228641;56;1138371;-86
2020/12/08 04:41:31;;;;;;;30.27;16.00;;;;;;;0.77;79.82;100128.20;5187653;56;1138305;-85
2020/12/08 04:46:39;;;;;;;38.60;19.43;;;;;;;0.74;80.05;100115.80;5163765;56;1138405;-85
2020/12/08 04:51:45;;;;;;;51.27;19.67;;;;;;;0.74;79.92;100110.14;5121939;56;1138644;-86
2020/12/08 04:56:50;;;;;;;37.93;19.37;;;;;;;0.78;79.79;100122.55;5149601;56;1139059;-85
2020/12/08 05:02:05;;;;;;;31.87;17.30;;;;;;;0.77;79.66;100119.55;5127547;56;1138375;-85
2020/12/08 05:07:11;;;;;;;33.80;17.17;;;;;;;0.74;79.52;100123.61;5134531;56;1138493;-85
2020/12/08 05:12:25;;;;;;;44.60;21.30;;;;;;;0.66;79.46;100136.48;5124789;56;1138638;-85
2020/12/08 05:17:31;;;;;;;;;;;;;;;0.69;79.47;100153.73;5059345;56;1138654;-85
2020/12/08 05:22:38;;;;;;;35.30;18.87;;;;;;;0.62;79.62;100150.98;5102046;57;969615;-85
2020/12/08 05:27:46;;;;;;;41.20;19.20;;;;;;;0.66;79.40;100156.46;5046811;57;1136189;-85
2020/12/08 05:32:52;;;;;;;32.07;15.50;;;;;;;0.65;79.46;100158.67;5120465;56;1138230;-85
2020/12/08 05:37:57;;;;;;;35.78;19.80;;;;;;;0.67;79.29;100164.20;5100861;56;1138465;-85
2020/12/08 05:43:04;;;;;;;33.93;16.63;;;;;;;0.62;79.28;100154.44;5192325;56;21078;-85
2020/12/08 05:48:13;;;;;;;29.17;13.80;;;;;;;0.65;79.19;100166.02;5161945;56;1134188;-85
2020/12/08 05:53:18;;;;;;;45.27;23.30;;;;;;;0.61;79.39;100166.24;5106271;56;1138239;-85
2020/12/08 05:58:24;;;;;;;39.10;19.47;;;;;;;0.59;79.36;100166.30;5155445;56;1136626;-85
2020/12/08 06:03:29;;;;;;;47.75;23.00;;;;;;;0.56;79.32;100166.88;5106880;56;1138673;-85
2020/12/08 06:08:49;;;;;;;48.33;24.43;;;;;;;0.57;79.32;100174.62;5107637;56;1138543;-85
2020/12/08 06:13:55;;;;;;;44.90;18.47;;;;;;;0.56;79.25;100172.09;5122091;56;1138300;-85
2020/12/08 06:19:00;;;;;;;38.37;17.47;;;;;;;0.57;79.11;100171.17;5113132;56;1138333;-85
2020/12/08 06:24:06;;;;;;;29.87;15.10;;;;;;;0.50;79.21;100190.55;5081388;56;1138335;-85
2020/12/08 06:29:12;;;;;;;49.17;25.33;;;;;;;0.48;79.34;100174.99;5075956;57;1138404;-85
2020/12/08 06:34:28;;;;;;;47.07;22.80;;;;;;;0.51;79.30;100190.94;5076256;57;1138461;-85
2020/12/08 06:39:33;;;;;;;43.13;21.97;;;;;;;0.51;79.09;100210.45;5116784;57;1138684;-84
2020/12/08 06:44:39;;;;;;;37.63;19.13;;;;;;;0.51;79.16;100206.55;5041812;57;1138404;-84
2020/12/08 06:49:45;;;;;;;76.60;27.00;;;;;;;0.47;79.16;100194.11;5113525;56;1138383;-85
2020/12/08 06:54:59;;;;;;;43.43;22.13;;;;;;;0.49;79.12;100205.76;5064713;56;1138280;-87
2020/12/08 07:00:09;;;;;;;40.20;18.48;;;;;;;0.49;79.09;100230.02;5093383;56;1139380;-86
2020/12/08 07:05:19;;;;;;;53.57;23.70;;;;;;;0.52;78.98;100241.61;5072439;57;1138594;-85
2020/12/08 07:10:25;;;;;;;38.13;17.53;;;;;;;0.58;78.85;100254.84;5060498;57;1138411;-86
2020/12/08 07:15:32;;;;;;;43.93;20.20;;;;;;;0.55;78.77;100258.86;5083874;57;1138382;-85
2020/12/08 07:20:41;;;;;;;67.63;31.20;;;;;;;0.56;78.84;100268.36;5074009;57;1139055;-85
2020/12/08 07:25:46;;;;;;;59.87;29.87;;;;;;;0.53;78.89;100264.13;5013045;57;1138678;-85
2020/12/08 07:30:53;;;;;;;62.14;31.40;;;;;;;0.55;78.92;100262.76;5107770;57;1138485;-87
2020/12/08 07:35:59;;;;;;;85.12;36.42;;;;;;;0.52;79.09;100258.52;5058218;57;1138567;-86
2020/12/08 07:41:04;;;;;;;50.63;23.87;;;;;;;0.53;79.09;100267.17;5094975;57;1138313;-86
2020/12/08 07:46:10;;;;;;;66.87;29.03;;;;;;;0.57;78.80;100268.75;5063780;56;1138845;-85
2020/12/08 07:51:16;;;;;;;60.63;32.27;;;;;;;0.55;78.97;100259.70;5016436;57;1138466;-85
2020/12/08 07:56:32;;;;;;;94.20;40.73;;;;;;;0.55;78.94;100261.46;5048886;57;1138300;-85
2020/12/08 08:01:45;;;;;;;47.60;22.67;;;;;;;0.57;78.99;100248.78;4979262;57;1138360;-85
2020/12/08 08:06:50;;;;;;;50.57;25.13;;;;;;;0.55;79.12;100239.34;5020774;57;1138396;-85
2020/12/08 08:11:56;;;;;;;32.30;15.17;;;;;;;0.59;79.01;100247.42;5022049;57;1138516;-85
2020/12/08 08:17:03;;;;;;;136.20;57.43;;;;;;;0.60;79.01;100250.42;5010052;57;1138423;-86
2020/12/08 08:22:08;;;;;;;104.70;47.95;;;;;;;0.64;79.00;100246.76;5012091;58;1140868;-88
2020/12/08 08:27:14;;;;;;;50.53;26.37;;;;;;;0.62;78.98;100239.02;5076149;56;1140493;-88
2020/12/08 08:32:19;;;;;;;57.47;26.10;;;;;;;0.67;78.88;100253.99;5100360;55;1138529;-85
2020/12/08 08:37:25;;;;;;;44.47;19.60;;;;;;;0.67;78.91;100253.14;5081830;55;1138532;-85
2020/12/08 08:42:31;;;;;;;49.30;23.33;;;;;;;0.66;78.76;100260.56;5065392;56;1138794;-85
2020/12/08 08:47:37;;;;;;;45.37;19.07;;;;;;;0.67;78.87;100280.02;5054471;56;1138788;-85
2020/12/08 08:52:43;;;;;;;45.47;22.00;;;;;;;0.65;78.85;100263.61;5062053;56;1138924;-86
2020/12/08 08:57:48;;;;;;;45.23;19.63;;;;;;;0.67;78.99;100253.14;4964984;57;1138917;-86
2020/12/08 09:02:58;;;;;;;41.44;21.30;;;;;;;0.69;78.97;100245.67;5082343;56;1138656;-87
2020/12/08 09:08:02;;;;;;;51.27;24.00;;;;;;;0.73;78.87;100236.44;5083623;55;1138877;-86
2020/12/08 09:13:08;;;;;;;46.55;22.07;;;;;;;0.76;78.47;100252.78;5065147;56;1138821;-85
2020/12/08 09:18:13;;;;;;;42.70;20.83;;;;;;;0.77;78.42;100261.41;5062704;56;1138727;-85
2020/12/08 09:23:22;;;;;;;69.00;21.20;;;;;;;0.81;78.45;100285.95;5133169;56;1138614;-84
2020/12/08 09:28:37;;;;;;;47.87;20.53;;;;;;;0.83;78.59;100294.55;5134734;56;1138697;-85
2020/12/08 09:34:06;;;;;;;44.80;19.57;;;;;;;0.82;78.40;100306.33;5129204;55;1138891;-85
2020/12/08 09:39:12;;;;;;;38.33;18.70;;;;;;;0.78;78.67;100312.11;5132834;56;1138530;-85
2020/12/08 09:44:18;;;;;;;30.40;13.67;;;;;;;0.83;78.63;100311.47;5134819;56;1138500;-85
2020/12/08 09:49:23;;;;;;;40.33;19.13;;;;;;;0.81;78.70;100298.13;5129986;55;1138672;-84
2020/12/08 09:54:29;;;;;;;53.02;26.50;;;;;;;0.85;78.58;100298.40;5134345;55;1138586;-86
2020/12/08 09:59:36;;;;;;;51.83;25.07;;;;;;;0.90;78.87;100284.30;5131766;56;1138693;-85
2020/12/08 10:04:44;;;;;;;34.20;18.67;;;;;;;0.91;78.65;100280.78;5131736;55;1138888;-86
2020/12/08 10:09:51;;;;;;;34.88;17.07;;;;;;;0.87;78.78;100274.45;5078299;56;1138469;-85
2020/12/08 10:14:56;;;;;;;41.67;21.27;;;;;;;0.83;78.90;100286.74;5085079;56;1138794;-86
2020/12/08 10:20:02;;;;;;;40.33;21.23;;;;;;;0.84;79.10;100296.70;5085126;56;1138521;-85
2020/12/08 10:25:07;;;;;;;41.33;20.43;;;;;;;0.86;78.88;100298.79;5080349;56;1138898;-85
2020/12/08 10:30:13;;;;;;;38.76;18.72;;;;;;;0.88;79.02;100294.37;5025257;56;1138536;-86
2020/12/08 10:35:19;;;;;;;30.47;14.93;;;;;;;0.88;78.99;100296.98;4985154;57;1138805;-85
2020/12/08 10:40:24;;;;;;;42.70;18.13;;;;;;;0.86;79.24;100285.32;5025487;57;1138533;-86
2020/12/08 10:45:30;;;;;;;38.67;18.77;;;;;;;0.86;79.29;100280.11;5074080;57;1138642;-86
2020/12/08 10:50:35;;;;;;;53.97;23.30;;;;;;;0.86;79.37;100289.68;5026963;57;1138722;-86
2020/12/08 10:55:41;;;;;;;37.77;20.07;;;;;;;0.82;79.60;100284.20;4989369;57;1138774;-87
2020/12/08 11:00:47;;;;;;;43.07;18.93;;;;;;;0.83;79.55;100277.63;4987806;58;1138578;-86
2020/12/08 11:05:52;;;;;;;73.07;29.73;;;;;;;0.83;79.54;100291.10;4993803;57;1138793;-86
2020/12/08 11:10:58;;;;;;;53.83;29.83;;;;;;;0.84;79.67;100279.78;4993386;57;1138788;-87
2020/12/08 11:16:06;;;;;;;104.85;51.88;;;;;;;0.86;79.67;100267.09;4991638;57;1138509;-86
2020/12/08 11:21:12;;;;;;;40.80;20.67;;;;;;;0.87;79.75;100264.04;4988137;57;1140738;-86
2020/12/08 11:26:17;;;;;;;50.73;21.93;;;;;;;0.88;79.82;100260.08;5007166;57;1138376;-86
2020/12/08 11:31:24;;;;;;;64.60;30.37;;;;;;;0.88;79.91;100275.69;5031636;56;1138714;-85
2020/12/08 11:36:29;;;;;;;52.77;24.70;;;;;;;0.98;79.81;100283.95;5060987;56;1138995;-84
2020/12/08 11:41:35;;;;;;;38.70;16.87;;;;;;;1.01;79.68;100287.73;5083827;56;1138679;-87
2020/12/08 11:46:41;;;;;;;124.13;48.47;;;;;;;1.01;79.70;100283.38;5077656;56;1138249;-85
2020/12/08 11:51:47;;;;;;;47.83;21.40;;;;;;;1.05;79.73;100278.89;5092710;56;1140829;-87
2020/12/08 11:56:53;;;;;;;63.93;26.47;;;;;;;1.08;79.68;100284.41;5056215;56;1138542;-86
2020/12/08 12:01:58;;;;;;;62.07;24.77;;;;;;;1.11;79.27;100281.67;5029311;57;1138780;-87
2020/12/08 12:07:04;;;;;;;35.58;16.45;;;;;;;1.12;79.41;100297.23;4993689;57;1138711;-86
2020/12/08 12:12:09;;;;;;;39.30;18.77;;;;;;;1.06;79.65;100277.98;4991567;57;1138793;-86
2020/12/08 12:17:15;;;;;;;44.60;21.52;;;;;;;1.04;79.83;100286.31;5042619;57;1138690;-86
2020/12/08 12:22:23;;;;;;;53.87;24.20;;;;;;;1.01;79.96;100295.55;4971797;57;1138778;-87
2020/12/08 12:27:36;;;;;;;40.80;19.53;;;;;;;1.09;79.97;100302.57;4997685;57;1138236;-86
2020/12/08 12:32:41;;;;;;;38.40;18.03;;;;;;;1.08;79.88;100297.42;4937973;57;1138659;-86
2020/12/08 12:37:48;;;;;;;49.98;23.75;;;;;;;1.07;80.04;100311.38;4924438;57;1138876;-87
2020/12/08 12:42:53;;;;;;;47.70;23.03;;;;;;;1.14;79.81;100314.11;4906694;58;1138960;-85
2020/12/08 12:47:59;;;;;;;46.43;22.23;;;;;;;1.14;79.77;100311.50;4927873;57;1138786;-86
2020/12/08 12:53:05;;;;;;;42.30;20.37;;;;;;;1.12;79.71;100320.67;4974922;57;1148836;-86
2020/12/08 12:58:10;;;;;;;57.40;25.62;;;;;;;1.15;79.65;100321.02;5006472;56;1138838;-86
2020/12/08 13:03:16;;;;;;;49.47;21.47;;;;;;;1.18;79.72;100318.28;5069473;56;1138889;-86
2020/12/08 13:08:21;;;;;;;38.70;19.87;;;;;;;1.21;79.58;100316.86;5069819;56;1138785;-86
2020/12/08 13:13:27;;;;;;;51.10;22.17;;;;;;;1.13;79.76;100318.47;5067755;56;1138709;-86
2020/12/08 13:18:33;;;;;;;51.43;23.33;;;;;;;1.14;79.87;100317.55;5071179;56;1138950;-85
2020/12/08 13:23:39;;;;;;;48.73;22.17;;;;;;;1.20;79.76;100321.67;5067915;56;1138679;-86
2020/12/08 13:28:44;;;;;;;47.17;25.37;;;;;;;1.20;79.77;100322.97;5152667;56;1138158;-87
2020/12/08 13:33:50;;;;;;;61.27;29.80;;;;;;;1.21;79.70;100315.10;5073586;56;1138855;-87
2020/12/08 13:38:56;;;;;;;111.93;47.90;;;;;;;1.23;79.76;100308.04;5116780;56;1138508;-87
2020/12/08 13:44:01;;;;;;;93.70;42.20;;;;;;;1.28;79.64;100313.06;5096476;56;1140789;-86
2020/12/08 13:49:07;;;;;;;84.13;36.30;;;;;;;1.32;79.29;100325.05;5088701;55;1138282;-85
2020/12/08 13:54:13;;;;;;;53.97;22.97;;;;;;;1.32;79.36;100327.66;5073219;56;1138753;-86
2020/12/08 13:59:18;;;;;;;210.48;70.78;;;;;;;1.24;79.34;100336.23;5166384;55;1138665;-86
2020/12/08 14:04:24;;;;;;;105.80;42.60;;;;;;;1.28;79.52;100342.56;5205831;55;1140278;-87
2020/12/08 14:09:30;;;;;;;57.67;26.93;;;;;;;1.28;79.37;100340.41;5160479;55;1141087;-86
2020/12/08 14:14:35;;;;;;;117.10;45.80;;;;;;;1.25;79.32;100334.02;5159061;55;1138611;-86
2020/12/08 14:19:41;;;;;;;147.50;55.23;;;;;;;1.30;79.31;100338.14;5157372;56;1140767;-86
2020/12/08 14:24:46;;;;;;;45.57;21.97;;;;;;;1.30;79.23;100342.50;5159650;55;1141202;-87
2020/12/08 14:29:52;;;;;;;50.90;24.75;;;;;;;1.29;79.18;100340.36;5163113;55;1138491;-87
2020/12/08 14:34:57;;;;;;;131.67;66.13;;;;;;;1.32;79.05;100348.50;5169555;55;1138354;-87
2020/12/08 14:40:05;;;;;;;99.83;51.70;;;;;;;1.30;79.17;100351.63;5203910;55;1140316;-86
2020/12/08 14:45:10;;;;;;;72.08;31.77;;;;;;;1.31;79.14;100348.95;5165826;55;1139092;-86
2020/12/08 14:50:16;;;;;;;66.57;32.40;;;;;;;1.34;79.08;100352.73;5165008;55;1138353;-86
2020/12/08 14:55:22;;;;;;;142.87;55.43;;;;;;;1.32;79.01;100357.16;5165971;55;1138673;-87
2020/12/08 15:00:27;;;;;;;130.50;51.50;;;;;;;1.34;78.73;100359.71;5182847;55;1140254;-88
2020/12/08 15:05:33;;;;;;;131.27;49.20;;;;;;;1.33;78.43;100371.04;5187867;55;1140822;-88
2020/12/08 15:10:38;;;;;;;139.93;63.90;;;;;;;1.24;78.29;100365.74;5168286;55;1140387;-87
2020/12/08 15:15:43;;;;;;;128.77;53.47;;;;;;;1.22;78.11;100364.14;5205548;55;1140337;-87
2020/12/08 15:20:49;;;;;;;141.27;53.73;;;;;;;1.12;77.91;100363.66;5164405;55;1140728;-86
2020/12/08 15:25:55;;;;;;;143.03;50.50;;;;;;;1.05;77.77;100365.68;5188028;55;1140471;-88
2020/12/08 15:31:00;;;;;;;90.17;32.00;;;;;;;0.98;77.71;100379.84;5165986;55;1140541;-86
2020/12/08 15:36:06;;;;;;;109.92;44.15;;;;;;;0.90;77.67;100384.53;5205172;56;1138449;-86
2020/12/08 15:41:11;;;;;;;121.62;47.88;;;;;;;0.86;77.57;100385.55;5159339;55;1140997;-87
2020/12/08 15:46:26;;;;;;;101.20;40.45;;;;;;;0.81;77.50;100378.82;5164814;55;1140500;-86
2020/12/08 15:51:31;;;;;;;111.13;42.03;;;;;;;0.77;77.49;100383.75;5170006;55;1140496;-86
2020/12/08 15:56:42;;;;;;;108.80;43.97;;;;;;;0.72;77.51;100384.41;5169340;55;1140470;-86
2020/12/08 16:01:48;;;;;;;108.30;41.00;;;;;;;0.67;77.51;100389.33;5164735;55;1140595;-85
2020/12/08 16:06:54;;;;;;;59.60;24.13;;;;;;;0.61;77.56;100380.93;5157907;55;1140338;-86
2020/12/08 16:11:59;;;;;;;132.60;50.60;;;;;;;0.59;77.66;100387.49;5163182;55;1138694;-84
2020/12/08 16:17:06;;;;;;;66.85;29.25;;;;;;;0.59;77.75;100394.45;5161806;55;1140673;-87
2020/12/08 16:22:11;;;;;;;117.33;50.43;;;;;;;0.54;77.74;100390.71;5162305;55;1138563;-85
2020/12/08 16:27:17;;;;;;;76.42;32.58;;;;;;;0.50;77.86;100396.94;5167084;55;1140713;-85
2020/12/08 16:32:24;;;;;;;57.90;27.63;;;;;;;0.50;77.81;100383.92;5184769;55;1138324;-86
2020/12/08 16:37:30;;;;;;;47.77;18.90;;;;;;;0.48;77.92;100384.88;5153308;55;1138696;-87
2020/12/08 16:42:35;;;;;;;84.33;28.97;;;;;;;0.45;77.95;100397.58;5109856;56;1138348;-86
2020/12/08 16:47:41;;;;;;;109.17;52.90;;;;;;;0.41;78.05;100402.50;5108060;56;1138250;-86
2020/12/08 16:52:51;;;;;;;125.57;72.50;;;;;;;0.37;78.31;100411.31;5112445;56;1140758;-86
2020/12/08 16:57:57;;;;;;;55.47;23.93;;;;;;;0.41;78.43;100401.65;5127875;56;1140706;-85
2020/12/08 17:03:02;;;;;;;75.33;29.60;;;;;;;0.43;78.48;100408.50;5109259;55;1255023;-86
2020/12/08 17:08:08;;;;;;;50.00;19.60;;;;;;;0.44;78.48;100421.91;5142920;55;1138407;-86
2020/12/08 17:13:14;;;;;;;76.65;25.08;;;;;;;0.47;78.49;100418.31;5108243;56;1138738;-86
2020/12/08 17:18:19;;;;;;;141.33;55.70;;;;;;;0.50;78.45;100429.91;5149868;55;1138255;-85
2020/12/08 17:23:25;;;;;;;126.67;49.40;;;;;;;0.49;78.46;100425.61;5110861;56;1140934;-86
2020/12/08 17:28:30;;;;;;;70.40;27.60;;;;;;;0.50;78.44;100427.31;5133566;55;1140389;-86
2020/12/08 17:33:37;;;;;;;156.03;61.40;;;;;;;0.49;78.35;100425.61;5126812;55;1138657;-86
2020/12/08 17:38:43;;;;;;;41.33;17.70;;;;;;;0.49;78.34;100421.25;5112342;56;1140421;-85
2020/12/08 17:43:48;;;;;;;139.20;52.17;;;;;;;0.50;78.32;100418.20;5119724;55;1138384;-86
2020/12/08 17:48:54;;;;;;;108.83;39.23;;;;;;;0.52;78.29;100415.94;5116324;56;1140476;-86
2020/12/08 17:53:59;;;;;;;85.47;35.93;;;;;;;0.55;78.23;100420.19;5113771;55;1140354;-85
2020/12/08 17:59:05;;;;;;;44.35;20.62;;;;;;;0.57;78.15;100420.53;5137602;55;1138713;-85
2020/12/08 18:04:11;;;;;;;46.60;22.00;;;;;;;0.60;78.15;100436.03;5162965;56;1138420;-85
2020/12/08 18:09:16;;;;;;;96.23;35.27;;;;;;;0.61;78.01;100448.59;5110155;55;1138926;-85
2020/12/08 18:14:22;;;;;;;76.55;29.80;;;;;;;0.62;78.00;100437.24;5117862;56;1138565;-85
2020/12/08 18:19:30;;;;;;;54.63;24.20;;;;;;;0.63;77.94;100452.80;5115162;56;1138608;-85
2020/12/08 18:24:36;;;;;;;42.30;16.83;;;;;;;0.63;78.10;100445.45;5138873;56;1138378;-85
2020/12/08 18:29:42;;;;;;;65.40;24.63;;;;;;;0.67;77.86;100447.88;5112348;55;1138909;-85
2020/12/08 18:34:47;;;;;;;64.40;24.97;;;;;;;0.67;77.80;100437.47;5117556;56;1138694;-85
2020/12/08 18:39:53;;;;;;;74.47;29.90;;;;;;;0.68;77.75;100439.17;5125499;56;1138728;-85
2020/12/08 18:44:58;;;;;;;62.13;26.42;;;;;;;0.71;77.67;100446.02;5131234;56;1139012;-85
2020/12/08 18:50:07;;;;;;;82.33;27.67;;;;;;;0.71;77.41;100457.73;5154256;56;1138660;-85
2020/12/08 18:55:13;;;;;;;48.28;23.45;;;;;;;0.71;77.42;100456.43;5114540;55;1138553;-86
2020/12/08 19:00:23;;;;;;;65.47;26.73;;;;;;;0.69;77.41;100454.34;5126892;56;1138441;-85
2020/12/08 19:05:29;;;;;;;50.23;20.73;;;;;;;0.71;77.44;100459.03;5130352;56;1138559;-84
2020/12/08 19:10:35;;;;;;;53.13;25.60;;;;;;;0.68;77.38;100449.58;5128964;56;1138660;-86
2020/12/08 19:15:40;;;;;;;73.23;37.10;;;;;;;0.65;77.36;100446.24;5154760;56;1138675;-85
2020/12/08 19:20:46;;;;;;;81.53;31.90;;;;;;;0.69;77.39;100441.32;5130698;56;1138262;-85
2020/12/08 19:25:51;;;;;;;44.45;19.87;;;;;;;0.68;77.27;100441.78;5126855;56;1138456;-84
2020/12/08 19:30:57;;;;;;;82.97;34.87;;;;;;;0.66;77.21;100449.24;5125923;56;1138298;-84
2020/12/08 19:36:04;;;;;;;57.07;26.07;;;;;;;0.64;77.27;100453.20;5125370;56;1138854;-85
2020/12/08 19:41:10;;;;;;;110.97;43.37;;;;;;;0.69;77.30;100457.79;5126319;56;1139591;-84
2020/12/08 19:46:15;;;;;;;55.17;23.90;;;;;;;0.68;77.28;100459.14;5071210;57;1140864;-84
2020/12/08 19:51:21;;;;;;;79.67;33.77;;;;;;;0.67;77.04;100465.25;5075707;57;1138432;-85
2020/12/08 19:56:26;;;;;;;52.00;20.67;;;;;;;0.68;77.20;100476.06;5071243;57;1138758;-84
2020/12/08 20:01:32;;;;;;;83.30;35.80;;;;;;;0.68;77.01;100475.61;5069571;56;1138614;-85
2020/12/08 20:06:37;;;;;;;46.60;22.23;;;;;;;0.70;77.05;100479.45;5075184;57;1138379;-85
2020/12/08 20:11:44;;;;;;;53.93;23.70;;;;;;;0.66;77.01;100484.37;5076738;57;1138769;-85
2020/12/08 20:16:49;;;;;;;53.13;25.05;;;;;;;0.64;77.04;100486.19;5072731;57;1138946;-85
2020/12/08 20:21:55;;;;;;;65.60;30.80;;;;;;;0.64;77.03;100481.83;5072399;57;1138733;-85
2020/12/08 20:27:00;;;;;;;67.83;29.03;;;;;;;0.62;77.10;100483.64;5074393;57;1138747;-85
2020/12/08 20:32:06;;;;;;;56.10;25.17;;;;;;;0.62;77.06;100487.54;5070580;57;1146512;-85
2020/12/08 20:37:12;;;;;;;51.77;21.50;;;;;;;0.59;76.98;100485.53;5077931;57;1138650;-85
2020/12/08 20:42:17;;;;;;;69.53;32.70;;;;;;;0.58;76.98;100484.68;5079891;57;1138506;-85
2020/12/08 20:47:23;;;;;;;30.73;12.67;;;;;;;0.63;76.97;100477.98;5117202;56;1138671;-86
2020/12/08 20:52:29;;;;;;;52.37;22.97;;;;;;;0.59;76.54;100479.02;5124632;56;1138477;-85
2020/12/08 20:57:35;;;;;;;51.30;21.00;;;;;;;0.59;76.71;100473.37;5129359;56;1138911;-85
2020/12/08 21:02:41;;;;;;;49.48;19.62;;;;;;;0.58;76.64;100474.27;5078721;56;1138754;-84
2020/12/08 21:07:48;;;;;;;65.20;28.87;;;;;;;0.57;76.54;100482.13;5070842;56;1138546;-84
2020/12/08 21:12:55;;;;;;;59.57;24.03;;;;;;;0.52;76.38;100494.45;5100961;56;1138266;-84
2020/12/08 21:18:03;;;;;;;67.60;25.77;;;;;;;0.46;76.50;100497.30;5065078;56;1138369;-85
2020/12/08 21:23:09;;;;;;;65.52;27.07;;;;;;;0.43;76.49;100500.86;5117804;56;1138493;-85
2020/12/08 21:28:15;;;;;;;52.43;24.97;;;;;;;0.41;76.50;100496.16;5109716;56;1138515;-84
2020/12/08 21:33:21;;;;;;;63.60;27.03;;;;;;;0.36;76.58;100501.96;5117232;56;1138224;-84
2020/12/08 21:38:27;;;;;;;57.07;21.97;;;;;;;0.17;76.77;100506.96;5139072;56;1138436;-84
2020/12/08 21:43:32;;;;;;;88.63;32.83;;;;;;;0.17;76.77;100506.96;5105420;56;1138396;-84
2020/12/08 21:48:38;;;;;;;76.60;31.87;;;;;;;0.11;76.52;100503.30;5156954;56;1138450;-84
2020/12/08 21:53:45;;;;;;;80.40;32.60;;;;;;;0.06;76.58;100514.75;5148799;56;1138860;-84
2020/12/08 21:58:51;;;;;;;78.87;30.90;;;;;;;-0.02;76.74;100517.18;5104119;56;1138586;-85
2020/12/08 22:03:56;;;;;;;77.00;32.90;;;;;;;-0.13;76.95;100528.81;5097537;56;1140752;-84
2020/12/08 22:09:03;;;;;;;65.23;27.83;;;;;;;-0.16;76.97;100525.90;5137498;55;1140277;-84
2020/12/08 22:14:10;;;;;;;90.67;36.30;;;;;;;-0.23;77.21;100517.04;5092854;55;1140639;-85
2020/12/08 22:19:17;;;;;;;65.63;27.53;;;;;;;-0.29;77.39;100522.42;5103593;56;1140405;-85
2020/12/08 22:24:22;;;;;;;72.00;28.47;;;;;;;-0.37;77.65;100518.35;5099480;55;1140650;-85
2020/12/08 22:29:28;;;;;;;85.07;31.60;;;;;;;-0.40;77.71;100516.30;5128586;55;1140677;-85
2020/12/08 22:34:34;;;;;;;63.37;28.07;;;;;;;-0.44;77.60;100514.23;5163317;55;1140792;-85
2020/12/08 22:39:39;;;;;;;83.80;36.03;;;;;;;-0.49;77.83;100509.66;5168427;55;1140441;-85
2020/12/08 22:44:45;;;;;;;64.83;23.77;;;;;;;-0.48;77.91;100510.06;5168450;55;1140567;-85
2020/12/08 22:49:50;;;;;;;66.53;28.63;;;;;;;-0.51;78.11;100508.86;5148475;55;1140453;-85
2020/12/08 22:54:57;;;;;;;56.20;25.20;;;;;;;-0.53;78.14;100517.15;5181827;55;1140462;-84